Airfield :
LOGIN :

Register | Disclaimer

   EN    FR    IT 

 










Legend :    VFR   Marginal VFR   IFR   Intensive IFR   Very Intensive IFR
Visi :
Ceiling :
>= 8 km
>= 3000ft
5 to 8 km
1000 to 3000 ft
1500m to 5 km
500 to 1000 ft
800 to 1500m
200 to 500 ft
< 800m
< 200 ft
Symbols :   Thunderstorms  Fog  Heavy snow  Heavy precipitations  Wind > 20 kt
SIGMETs :     Misc.  Thunderstorms  Icing  Turbulence  Mountain Waves  Volcanic Ashes






- Airport Elevation : 194 ft
- IATA code : ANE


LFJR - Angers Marcé

CURRENT METAR :
  • 021200Z AUTO 18006KT 120V290 CAVOK 25/09 Q1019

EXPIRED METARs :
  • 021130Z AUTO 15006KT 100V200 CAVOK 25/09 Q1020
  • 021100Z AUTO 23005KT 160V290 CAVOK 24/10 Q1020
  • 021030Z AUTO VRB04KT CAVOK 24/09 Q1020
  • 021000Z AUTO 18008KT 130V270 CAVOK 24/10 Q1020
  • 020930Z AUTO 17007KT 130V210 CAVOK 23/10 Q1021
  • 020900Z AUTO 17006KT 140V230 CAVOK 22/11 Q1021

Expired Forecast.



MET'MAP, your aeronautical weather chart ! - Copyright ORBIFLY December 2007 - Disclaimer

ORBIFLY MET'MAP TEAM :

Programming & Development : Alexandra Zaïnal
Original concept : Baudouin d'Aumeries
Technical & hardware support : Manuel Goepfert
Assistance : Marc-Olivier Méhu




SOURCES & CREDITS :

   NOAA